createdAt,value
2018-11-05T00:00:19.958Z,73.82
2018-11-05T00:02:51.501Z,73.76
2018-11-05T00:05:21.317Z,73.67
2018-11-05T00:07:50.592Z,73.45
2018-11-05T00:10:19.826Z,73.75
2018-11-05T00:12:48.913Z,73.94
2018-11-05T00:15:18.066Z,73.69
2018-11-05T00:17:47.193Z,73.86
2018-11-05T00:20:16.378Z,73.64
2018-11-05T00:22:45.519Z,73.56
2018-11-05T00:25:14.895Z,73.66
2018-11-05T00:27:44.060Z,73.75
2018-11-05T00:30:14.203Z,73.49
2018-11-05T00:32:43.854Z,73.40
2018-11-05T00:35:13.414Z,73.90
2018-11-05T00:37:42.559Z,73.86
2018-11-05T00:40:15.315Z,73.70
2018-11-05T00:42:45.135Z,73.57
2018-11-05T00:45:14.850Z,73.50
2018-11-05T00:47:44.457Z,73.58
2018-11-05T00:50:15.146Z,73.31
2018-11-05T00:52:44.325Z,73.46
2018-11-05T00:55:13.881Z,73.60
2018-11-05T00:57:43.074Z,73.51
2018-11-05T01:00:15.044Z,73.33
2018-11-05T01:02:44.230Z,73.51
2018-11-05T01:05:14.660Z,73.50
2018-11-05T01:07:44.667Z,73.28
2018-11-05T01:10:15.004Z,73.40
2018-11-05T01:12:44.238Z,73.05
2018-11-05T01:15:14.521Z,72.94
2018-11-05T01:17:43.660Z,72.91
2018-11-05T01:20:13.923Z,73.05
2018-11-05T01:22:43.095Z,73.20
2018-11-05T01:25:12.319Z,73.20
2018-11-05T01:27:41.483Z,73.54
2018-11-05T01:30:12.551Z,73.24
2018-11-05T01:32:41.788Z,72.96
2018-11-05T01:35:12.206Z,72.96
2018-11-05T01:37:41.343Z,72.87
2018-11-05T01:40:14.423Z,72.79
2018-11-05T01:42:43.785Z,73.04
2018-11-05T01:45:14.123Z,72.87
2018-11-05T01:47:43.728Z,72.97
2018-11-05T01:50:15.174Z,72.76
2018-11-05T01:52:44.687Z,72.73
2018-11-05T01:55:13.836Z,72.63
2018-11-05T01:57:43.271Z,72.59
2018-11-05T02:00:16.271Z,73.02
2018-11-05T02:02:46.291Z,72.74
2018-11-05T02:05:15.458Z,72.63
2018-11-05T02:07:45.582Z,72.73
2018-11-05T02:10:16.060Z,72.80
2018-11-05T02:12:45.068Z,72.75
2018-11-05T02:15:14.517Z,72.86
2018-11-05T02:17:44.690Z,72.59
2018-11-05T02:20:14.861Z,72.71
2018-11-05T02:22:44.010Z,72.86
2018-11-05T02:25:13.864Z,72.69
2018-11-05T02:27:43.395Z,72.58
2018-11-05T02:30:15.449Z,72.66
2018-11-05T02:32:44.957Z,72.93
2018-11-05T02:35:15.259Z,72.77
2018-11-05T02:37:45.094Z,72.99
2018-11-05T02:40:15.812Z,72.75
2018-11-05T02:42:45.506Z,72.83
2018-11-05T02:45:15.762Z,72.91
2018-11-05T02:47:44.912Z,72.86
2018-11-05T02:50:14.867Z,72.74
2018-11-05T02:52:44.873Z,73.01
2018-11-05T02:55:14.011Z,73.14
2018-11-05T02:57:43.224Z,73.42
2018-11-05T03:00:16.748Z,73.54
2018-11-05T03:02:45.903Z,73.52
2018-11-05T03:05:16.177Z,73.87
2018-11-05T03:07:46.329Z,73.54
2018-11-05T03:10:15.623Z,73.48
2018-11-05T03:12:45.683Z,73.67
2018-11-05T03:15:16.059Z,73.52
2018-11-05T03:17:46.244Z,73.41
2018-11-05T03:20:16.195Z,73.47
2018-11-05T03:22:45.711Z,73.09
2018-11-05T03:25:14.899Z,73.11
2018-11-05T03:27:44.078Z,72.89
2018-11-05T03:30:15.919Z,72.97
2018-11-05T03:32:45.084Z,73.05
2018-11-05T03:35:14.710Z,73.13
2018-11-05T03:37:44.799Z,72.93
2018-11-05T03:40:14.207Z,72.96
2018-11-05T03:42:43.683Z,72.90
2018-11-05T03:45:14.115Z,73.12
2018-11-05T03:47:43.647Z,73.20
2018-11-05T03:50:15.742Z,73.16
2018-11-05T03:52:45.894Z,73.42
2018-11-05T03:55:16.129Z,73.38
2018-11-05T03:57:45.252Z,73.53
2018-11-05T04:00:15.808Z,73.46
2018-11-05T04:02:44.932Z,73.78
2018-11-05T04:05:14.075Z,73.80
2018-11-05T04:07:43.232Z,73.90
2018-11-05T04:10:13.363Z,74.00
2018-11-05T04:12:42.497Z,74.08
2018-11-05T04:15:12.064Z,74.42
2018-11-05T04:17:41.192Z,74.36
2018-11-05T04:20:12.643Z,74.12
2018-11-05T04:22:42.410Z,74.17
2018-11-05T04:25:11.596Z,74.37
2018-11-05T04:27:40.916Z,74.64
2018-11-05T04:30:13.181Z,74.68
2018-11-05T04:32:42.600Z,74.74
2018-11-05T04:35:12.294Z,74.82
2018-11-05T04:37:41.462Z,74.52
2018-11-05T04:40:11.548Z,74.49
2018-11-05T04:42:41.238Z,74.32
2018-11-05T04:45:12.180Z,74.19
2018-11-05T04:47:41.883Z,74.16
2018-11-05T04:50:17.382Z,74.36
2018-11-05T04:52:46.493Z,74.38
2018-11-05T04:55:15.664Z,74.17
2018-11-05T04:57:44.775Z,74.08
2018-11-05T05:00:16.806Z,74.20
2018-11-05T05:02:45.964Z,74.11
2018-11-05T05:05:16.204Z,74.24
2018-11-05T05:07:45.357Z,74.00
2018-11-05T05:10:15.669Z,74.12
2018-11-05T05:12:44.901Z,73.92
2018-11-05T05:15:14.104Z,74.55
2018-11-05T05:17:43.328Z,74.22
2018-11-05T05:20:14.350Z,74.32
2018-11-05T05:22:43.689Z,74.49
2018-11-05T05:25:12.856Z,74.66
2018-11-05T05:27:42.066Z,74.82
2018-11-05T05:30:15.370Z,74.82
2018-11-05T05:32:45.074Z,74.94
2018-11-05T05:35:14.343Z,75.01
2018-11-05T05:37:43.627Z,75.33
2018-11-05T05:40:12.990Z,75.30
2018-11-05T05:42:42.225Z,75.26
2018-11-05T05:45:12.257Z,75.14
2018-11-05T05:47:41.986Z,75.44
2018-11-05T05:50:14.899Z,75.39
2018-11-05T05:52:45.293Z,75.71
2018-11-05T05:55:14.579Z,75.88
2018-11-05T05:57:43.989Z,75.79
2018-11-05T06:00:14.743Z,76.13
2018-11-05T06:02:43.914Z,76.00
2018-11-05T06:05:13.962Z,76.16
2018-11-05T06:07:43.541Z,76.18
2018-11-05T06:10:13.855Z,76.20
2018-11-05T06:12:42.976Z,76.06
2018-11-05T06:15:14.078Z,76.16
2018-11-05T06:17:43.180Z,76.24
2018-11-05T06:20:15.903Z,76.39
2018-11-05T06:22:46.055Z,76.16
2018-11-05T06:25:15.301Z,76.33
2018-11-05T06:27:44.474Z,76.36
2018-11-05T06:30:18.212Z,76.28
2018-11-05T06:32:47.988Z,76.50
2018-11-05T06:35:17.268Z,76.35
2018-11-05T06:37:46.362Z,76.71
2018-11-05T06:40:17.589Z,76.41
2018-11-05T06:42:46.886Z,76.45
2018-11-05T06:45:17.445Z,76.54
2018-11-05T06:47:46.975Z,76.41
2018-11-05T06:50:19.961Z,76.41
2018-11-05T06:52:49.168Z,76.35
2018-11-05T06:55:18.328Z,76.20
2018-11-05T06:57:47.605Z,76.33
2018-11-05T07:00:19.425Z,76.00
2018-11-05T07:02:48.609Z,76.01
2018-11-05T07:05:17.733Z,76.07
2018-11-05T07:07:46.916Z,76.05
2018-11-05T07:10:16.658Z,75.97
2018-11-05T07:12:46.139Z,75.97
2018-11-05T07:15:16.470Z,75.70
2018-11-05T07:17:46.588Z,75.71
2018-11-05T07:20:16.890Z,75.54
2018-11-05T07:22:46.749Z,75.90
2018-11-05T07:25:16.315Z,75.92
2018-11-05T07:27:45.594Z,75.93
2018-11-05T07:30:17.110Z,75.96
2018-11-05T07:32:46.918Z,75.74
2018-11-05T07:35:16.295Z,75.62
2018-11-05T07:37:45.426Z,75.62
2018-11-05T07:40:15.728Z,75.46
2018-11-05T07:42:44.864Z,75.46
2018-11-05T07:45:17.481Z,75.47
2018-11-05T07:47:46.993Z,75.40
2018-11-05T07:50:17.084Z,75.44
2018-11-05T07:52:46.189Z,75.12
2018-11-05T07:55:16.619Z,75.48
2018-11-05T07:57:46.849Z,75.26
2018-11-05T08:00:22.059Z,75.41
2018-11-05T08:02:52.906Z,75.39
2018-11-05T08:05:22.725Z,75.51
2018-11-05T08:07:51.910Z,75.32
2018-11-05T08:10:21.036Z,75.42
2018-11-05T08:12:50.165Z,75.75
2018-11-05T08:15:20.385Z,75.99
2018-11-05T08:17:50.470Z,76.04
2018-11-05T08:20:19.613Z,76.14
2018-11-05T08:22:48.705Z,76.33
2018-11-05T08:25:18.102Z,76.01
2018-11-05T08:27:47.224Z,75.39
2018-11-05T08:30:18.561Z,75.50
2018-11-05T08:32:47.752Z,74.93
2018-11-05T08:35:16.864Z,74.96
2018-11-05T08:37:46.946Z,74.45
2018-11-05T08:40:20.711Z,74.62
2018-11-05T08:42:50.738Z,75.10
2018-11-05T08:45:21.184Z,74.85
2018-11-05T08:47:50.326Z,75.06
2018-11-05T08:50:20.706Z,74.90
2018-11-05T08:52:49.768Z,75.03
2018-11-05T08:55:20.312Z,74.83
2018-11-05T08:57:49.495Z,74.68
2018-11-05T09:00:24.506Z,74.58
2018-11-05T09:02:54.444Z,74.46
2018-11-05T09:05:23.890Z,74.39
2018-11-05T09:07:53.887Z,74.28
2018-11-05T09:10:23.216Z,74.41
2018-11-05T09:12:52.136Z,74.02
2018-11-05T09:15:22.222Z,73.84
2018-11-05T09:17:51.593Z,73.96
2018-11-05T09:20:21.119Z,73.96
2018-11-05T09:22:50.949Z,73.94
2018-11-05T09:25:20.060Z,73.69
2018-11-05T09:27:49.260Z,73.22
2018-11-05T09:30:20.556Z,73.18
2018-11-05T09:32:49.735Z,73.19
2018-11-05T09:35:18.885Z,72.89
2018-11-05T09:37:48.026Z,72.69
2018-11-05T09:40:20.437Z,72.73
2018-11-05T09:42:50.001Z,72.61
2018-11-05T09:45:24.296Z,72.27
2018-11-05T09:47:53.404Z,71.59
2018-11-05T09:50:22.544Z,71.49
2018-11-05T09:52:51.650Z,71.44
2018-11-05T09:55:20.795Z,71.54
2018-11-05T09:57:50.033Z,71.69
2018-11-05T10:00:21.480Z,72.33
2018-11-05T10:02:56.686Z,71.57
2018-11-05T10:05:25.799Z,70.76
2018-11-05T10:07:54.907Z,70.63
2018-11-05T10:10:24.114Z,69.59
2018-11-05T10:12:53.195Z,69.39
2018-11-05T10:15:22.352Z,69.28
2018-11-05T10:17:51.449Z,69.74
2018-11-05T10:20:22.788Z,69.94
2018-11-05T10:22:51.924Z,70.28
2018-11-05T10:25:21.390Z,70.30
2018-11-05T10:27:51.373Z,70.42
2018-11-05T10:30:22.916Z,70.96
2018-11-05T10:32:52.320Z,71.47
2018-11-05T10:35:25.554Z,71.73
2018-11-05T10:37:54.690Z,72.04
2018-11-05T10:40:23.878Z,71.33
2018-11-05T10:42:52.968Z,71.17
2018-11-05T10:45:22.086Z,69.98
2018-11-05T10:47:51.239Z,69.30
2018-11-05T10:50:20.382Z,69.09
2018-11-05T10:52:50.722Z,68.96
2018-11-05T10:55:20.014Z,69.03
2018-11-05T10:57:49.341Z,68.70
2018-11-05T11:00:26.498Z,68.92
2018-11-05T11:03:00.827Z,68.94
2018-11-05T11:05:30.967Z,69.13
2018-11-05T11:08:00.867Z,68.87
2018-11-05T11:10:30.685Z,68.58
2018-11-05T11:12:59.910Z,67.96
2018-11-05T11:15:29.028Z,67.75
2018-11-05T11:17:58.699Z,67.43
2018-11-05T11:20:27.858Z,67.65
2018-11-05T11:22:57.019Z,67.30
2018-11-05T11:25:26.132Z,66.72
2018-11-05T11:27:56.033Z,66.45
2018-11-05T11:30:25.124Z,67.24
2018-11-05T11:32:55.235Z,66.50
2018-11-05T11:35:24.350Z,66.30
2018-11-05T11:37:53.531Z,66.23
2018-11-05T11:40:23.590Z,65.73
2018-11-05T11:42:52.850Z,66.11
2018-11-05T11:45:22.714Z,66.16
2018-11-05T11:47:51.839Z,65.82
2018-11-05T11:50:21.230Z,65.75
2018-11-05T11:52:50.751Z,65.33
2018-11-05T11:55:21.036Z,65.76
2018-11-05T11:57:50.159Z,65.60
2018-11-05T12:00:22.345Z,66.18
2018-11-05T12:02:51.894Z,66.44
2018-11-05T12:05:21.263Z,66.31
2018-11-05T12:07:50.194Z,65.78
2018-11-05T12:10:21.801Z,65.67
2018-11-05T12:12:50.910Z,65.37
2018-11-05T12:15:20.806Z,64.73
2018-11-05T12:17:51.015Z,64.58
2018-11-05T12:20:21.368Z,64.62
2018-11-05T12:22:50.943Z,64.57
2018-11-05T12:25:20.071Z,64.21
2018-11-05T12:27:49.194Z,64.10
2018-11-05T12:30:20.680Z,63.28
2018-11-05T12:32:50.682Z,63.44
2018-11-05T12:35:19.821Z,63.04
2018-11-05T12:37:50.117Z,63.05
2018-11-05T12:40:20.179Z,63.41
2018-11-05T12:42:50.056Z,63.12
2018-11-05T12:45:19.195Z,62.99
2018-11-05T12:47:48.340Z,62.98
2018-11-05T12:50:20.117Z,62.36
2018-11-05T12:52:50.012Z,62.74
2018-11-05T12:55:19.159Z,62.04
2018-11-05T12:57:48.522Z,62.13
2018-11-05T13:00:20.100Z,61.86
2018-11-05T13:02:53.760Z,61.56
2018-11-05T13:05:23.956Z,61.77
2018-11-05T13:07:53.260Z,61.71
2018-11-05T13:10:22.489Z,61.95
2018-11-05T13:12:51.651Z,61.96
2018-11-05T13:15:27.082Z,62.00
2018-11-05T13:17:56.127Z,61.49
2018-11-05T13:20:25.527Z,61.65
2018-11-05T13:22:54.681Z,62.13
2018-11-05T13:25:23.813Z,61.79
2018-11-05T13:27:52.960Z,61.78
2018-11-05T13:30:22.130Z,61.93
2018-11-05T13:32:51.254Z,61.23
2018-11-05T13:35:21.451Z,61.33
2018-11-05T13:37:50.928Z,60.76
2018-11-05T13:40:20.989Z,61.05
2018-11-05T13:42:50.658Z,60.68
2018-11-05T13:45:20.494Z,60.97
2018-11-05T13:47:50.961Z,60.82
2018-11-05T13:50:19.485Z,61.00
2018-11-05T13:52:48.387Z,60.84
2018-11-05T13:55:18.089Z,61.57
2018-11-05T13:57:48.328Z,61.70
2018-11-05T14:00:24.037Z,61.31
2018-11-05T14:02:53.148Z,62.04
2018-11-05T14:05:22.385Z,62.10
2018-11-05T14:07:51.544Z,62.26
2018-11-05T14:10:21.938Z,62.46
2018-11-05T14:12:51.547Z,62.11
2018-11-05T14:15:21.067Z,62.38
2018-11-05T14:17:50.183Z,62.66
2018-11-05T14:20:20.492Z,63.20
2018-11-05T14:22:49.626Z,63.08
2018-11-05T14:25:19.740Z,63.33
2018-11-05T14:27:50.232Z,63.49
2018-11-05T14:30:19.212Z,63.39
2018-11-05T14:32:49.277Z,63.62
2018-11-05T14:35:18.408Z,63.55
2018-11-05T14:37:47.502Z,63.72
2018-11-05T14:40:17.465Z,63.73
2018-11-05T14:42:46.667Z,63.61
2018-11-05T14:45:18.016Z,63.90
2018-11-05T14:47:47.514Z,64.00
2018-11-05T14:50:18.263Z,64.09
2018-11-05T14:52:47.375Z,64.11
2018-11-05T14:55:18.419Z,64.41
2018-11-05T14:57:48.826Z,64.40
2018-11-05T15:00:25.602Z,64.69
2018-11-05T15:02:55.464Z,64.96
2018-11-05T15:05:24.610Z,64.90
2018-11-05T15:07:53.712Z,65.43
2018-11-05T15:10:24.179Z,65.33
2018-11-05T15:12:53.286Z,65.48
2018-11-05T15:15:22.814Z,65.75
2018-11-05T15:17:51.916Z,65.70
2018-11-05T15:20:23.176Z,65.85
2018-11-05T15:22:52.296Z,66.16
2018-11-05T15:25:21.902Z,66.24
2018-11-05T15:27:51.054Z,66.39
2018-11-05T15:30:21.424Z,66.54
2018-11-05T15:32:50.607Z,67.20
2018-11-05T15:35:19.689Z,67.21
2018-11-05T15:37:48.789Z,67.06
2018-11-05T15:40:19.227Z,67.91
2018-11-05T15:42:48.324Z,68.21
2018-11-05T15:45:18.883Z,67.98
2018-11-05T15:47:47.993Z,68.01
2018-11-05T15:50:18.461Z,68.25
2018-11-05T15:52:47.988Z,68.95
2018-11-05T15:55:16.795Z,69.67
2018-11-05T15:57:45.915Z,69.41
2018-11-05T16:00:15.635Z,69.50
2018-11-05T16:02:46.319Z,69.56
2018-11-05T16:05:15.458Z,69.56
2018-11-05T16:07:44.657Z,69.83
2018-11-05T16:10:13.833Z,70.00
2018-11-05T16:12:42.969Z,69.98
2018-11-05T16:15:12.692Z,70.12
2018-11-05T16:17:41.858Z,70.32
2018-11-05T16:20:13.735Z,70.25
2018-11-05T16:22:43.271Z,70.39
2018-11-05T16:25:12.387Z,70.28
2018-11-05T16:27:41.769Z,70.50
2018-11-05T16:30:13.405Z,70.44
2018-11-05T16:32:43.027Z,70.46
2018-11-05T16:35:12.175Z,70.35
2018-11-05T16:37:41.494Z,70.19
2018-11-05T16:40:13.562Z,70.24
2018-11-05T16:42:43.169Z,70.27
2018-11-05T16:45:12.502Z,70.67
2018-11-05T16:47:42.185Z,70.50
2018-11-05T16:50:23.903Z,70.85
2018-11-05T16:52:53.147Z,70.78
2018-11-05T16:55:22.298Z,70.78
2018-11-05T16:57:51.463Z,71.02
2018-11-05T17:00:20.600Z,71.11
2018-11-05T17:02:50.424Z,71.23
2018-11-05T17:05:19.297Z,71.61
2018-11-05T17:07:48.420Z,71.19
2018-11-05T17:10:17.561Z,71.08
2018-11-05T17:12:46.749Z,71.76
2018-11-05T17:15:16.794Z,71.67
2018-11-05T17:17:46.202Z,71.80
2018-11-05T17:20:18.456Z,71.61
2018-11-05T17:22:47.549Z,71.57
2018-11-05T17:25:17.176Z,71.57
2018-11-05T17:27:47.193Z,71.87
2018-11-05T17:30:19.037Z,71.59
2018-11-05T17:32:48.184Z,71.56
2018-11-05T17:35:17.505Z,71.74
2018-11-05T17:37:47.250Z,71.74
2018-11-05T17:40:17.627Z,72.21
2018-11-05T17:42:46.691Z,72.42
2018-11-05T17:45:17.078Z,72.19
2018-11-05T17:47:46.268Z,72.25
2018-11-05T17:50:16.582Z,72.52
2018-11-05T17:52:45.846Z,72.74
2018-11-05T17:55:15.411Z,72.62
2018-11-05T17:57:45.630Z,72.48
2018-11-05T18:00:17.254Z,72.64
2018-11-05T18:02:46.324Z,72.59
2018-11-05T18:05:15.793Z,72.43
2018-11-05T18:07:45.102Z,72.70
2018-11-05T18:10:14.246Z,72.57
2018-11-05T18:12:43.331Z,72.37
2018-11-05T18:15:13.138Z,72.43
2018-11-05T18:17:43.027Z,72.33
2018-11-05T18:20:13.455Z,72.40
2018-11-05T18:22:42.759Z,72.34
2018-11-05T18:25:14.331Z,72.14
2018-11-05T18:27:43.571Z,71.74
2018-11-05T18:30:13.491Z,71.66
2018-11-05T18:32:42.674Z,71.66
2018-11-05T18:35:13.310Z,71.59
2018-11-05T18:37:44.039Z,71.53
2018-11-05T18:40:14.547Z,71.44
2018-11-05T18:42:44.367Z,71.46
2018-11-05T18:45:13.610Z,71.26
2018-11-05T18:47:42.802Z,71.20
2018-11-05T18:50:13.745Z,70.84
2018-11-05T18:52:43.221Z,70.55
2018-11-05T18:55:13.611Z,70.51
2018-11-05T18:57:42.786Z,70.17
2018-11-05T19:00:22.195Z,70.34
2018-11-05T19:02:51.992Z,70.39
2018-11-05T19:05:21.963Z,70.51
2018-11-05T19:07:51.298Z,70.41
2018-11-05T19:10:20.415Z,70.11
2018-11-05T19:12:50.163Z,70.07
2018-11-05T19:15:19.480Z,70.48
2018-11-05T19:17:49.196Z,70.15
2018-11-05T19:20:18.566Z,70.70
2018-11-05T19:22:47.952Z,70.52
2018-11-05T19:25:17.575Z,70.70
2018-11-05T19:27:46.660Z,70.83
2018-11-05T19:30:18.886Z,70.62
2018-11-05T19:32:47.954Z,70.77
2018-11-05T19:35:17.044Z,70.98
2018-11-05T19:37:46.188Z,70.95
2018-11-05T19:40:16.119Z,71.02
2018-11-05T19:42:46.169Z,70.83
2018-11-05T19:45:17.225Z,71.11
2018-11-05T19:47:46.408Z,71.29
2018-11-05T19:50:17.994Z,71.29
2018-11-05T19:52:48.665Z,71.16
2018-11-05T19:55:18.416Z,71.13
2018-11-05T19:57:48.478Z,71.19
2018-11-05T20:00:19.436Z,71.44
2018-11-05T20:02:49.961Z,71.59
2018-11-05T20:05:19.394Z,71.43
2018-11-05T20:07:49.103Z,71.48
2018-11-05T20:10:18.249Z,71.14
2018-11-05T20:12:47.471Z,71.13
2018-11-05T20:15:16.930Z,71.23
2018-11-05T20:17:46.839Z,71.20
2018-11-05T20:20:17.358Z,71.36
2018-11-05T20:22:46.556Z,71.22
2018-11-05T20:25:16.431Z,71.37
2018-11-05T20:27:47.301Z,71.29
2018-11-05T20:30:21.940Z,71.33
2018-11-05T20:32:52.337Z,71.19
2018-11-05T20:35:22.496Z,71.17
2018-11-05T20:37:51.948Z,70.61
2018-11-05T20:40:22.012Z,70.55
2018-11-05T20:42:51.915Z,70.61
2018-11-05T20:45:21.922Z,70.95
2018-11-05T20:47:51.129Z,71.06
2018-11-05T20:50:20.266Z,70.89
2018-11-05T20:52:49.388Z,70.83
2018-11-05T20:55:18.894Z,70.94
2018-11-05T20:57:48.191Z,70.89
2018-11-05T21:00:19.043Z,70.71
2018-11-05T21:02:48.160Z,70.85
2018-11-05T21:05:17.396Z,70.96
2018-11-05T21:07:46.474Z,70.70
2018-11-05T21:10:15.869Z,70.71
2018-11-05T21:12:45.333Z,71.02
2018-11-05T21:15:15.875Z,70.85
2018-11-05T21:17:46.390Z,71.03
2018-11-05T21:20:16.031Z,71.06
2018-11-05T21:22:45.713Z,70.74
2018-11-05T21:25:14.676Z,70.73
2018-11-05T21:27:44.285Z,70.94
2018-11-05T21:30:15.913Z,71.11
2018-11-05T21:32:45.056Z,71.00
2018-11-05T21:35:15.485Z,71.09
2018-11-05T21:37:44.628Z,71.10
2018-11-05T21:40:14.902Z,71.17
2018-11-05T21:42:44.044Z,71.36
2018-11-05T21:45:14.209Z,71.36
2018-11-05T21:47:44.038Z,71.42
2018-11-05T21:50:15.026Z,71.63
2018-11-05T21:52:44.550Z,71.70
2018-11-05T21:55:13.641Z,71.83
2018-11-05T21:57:44.046Z,71.82
2018-11-05T22:00:18.357Z,71.74
2018-11-05T22:02:52.726Z,71.90
2018-11-05T22:05:22.014Z,71.85
2018-11-05T22:07:51.174Z,72.13
2018-11-05T22:10:20.332Z,71.93
2018-11-05T22:12:49.839Z,72.10
2018-11-05T22:15:19.454Z,72.04
2018-11-05T22:17:49.617Z,71.80
2018-11-05T22:20:18.724Z,72.17
2018-11-05T22:22:47.855Z,72.26
2018-11-05T22:25:16.971Z,72.40
2018-11-05T22:27:46.127Z,72.56
2018-11-05T22:30:15.236Z,72.25
2018-11-05T22:32:44.357Z,72.37
2018-11-05T22:35:13.447Z,72.33
2018-11-05T22:37:42.542Z,72.34
2018-11-05T22:40:13.000Z,72.44
2018-11-05T22:42:42.217Z,72.28
2018-11-05T22:45:12.818Z,72.63
2018-11-05T22:47:42.315Z,72.66
2018-11-05T22:50:11.485Z,72.47
2018-11-05T22:52:41.205Z,72.48
2018-11-05T22:55:10.634Z,72.61
2018-11-05T22:57:39.866Z,72.65
2018-11-05T23:00:18.929Z,72.80
2018-11-05T23:02:53.357Z,72.80
2018-11-05T23:05:22.754Z,73.22
2018-11-05T23:07:53.099Z,73.10
2018-11-05T23:10:22.572Z,73.09
2018-11-05T23:12:51.700Z,73.47
2018-11-05T23:15:21.165Z,73.26
2018-11-05T23:17:50.651Z,73.52
2018-11-05T23:20:19.754Z,73.40
2018-11-05T23:22:48.891Z,73.75
2018-11-05T23:25:18.012Z,73.49
2018-11-05T23:27:47.163Z,73.60
2018-11-05T23:30:16.280Z,73.54
2018-11-05T23:32:45.352Z,73.54
2018-11-05T23:35:14.487Z,73.77
2018-11-05T23:37:43.597Z,73.82
2018-11-05T23:40:12.736Z,73.97
2018-11-05T23:42:41.924Z,74.19
2018-11-05T23:45:14.330Z,73.93
2018-11-05T23:47:43.474Z,73.90
2018-11-05T23:50:12.931Z,73.87
2018-11-05T23:52:42.104Z,73.89
2018-11-05T23:55:11.727Z,73.67
2018-11-05T23:57:41.203Z,73.97
